Accueil
METAR-TAF:

METAR-TAF

Aéroports :

Colmar, France

Aéroport de Colmar - Houssen

latitude: 48-06-37N, longitude: 7-21-33E, altitude: 191 m

Observation

Le bulletin a été fait il y a 13 minutes, à 10:00 UTC
Vent 5 kt de direction variable
Température 11°C
Humidité 43%
Pression 1015 hPa
Visibilité 10 km ou plus
Quelques nuages à une hauteur de 5200 ft
Nuages épars à une hauteur de 8200 ft
Ciel couvert à une hauteur de 15000 ft

METAR: LFGA 281000Z AUTO VRB05KT 9999 FEW052 SCT082 OVC150 11/M01 Q1015

Heure: 12:13 (10:13 UTC)


TAF: absent

Observations et prévisions météorologiques de plus de 4000 aéroports (messages METAR et TAF).

Les stations disponibles sont représentées par des disques jaunes et rouges sur la carte.

Passer la souris dessus pour voir le nom de la station.

Cliquer dessus pour voir les observations et prévisions météorologiques.

Pour changer de carte: cliquez sur les boutons verts avec une croix noire pour zoomer, sur le bouton vert avec un tiret pour effectuer un zoom arrière, ou sur les flèches vertes pour les cartes adjacentes.


METAR-TAF: